PWSweather.com
Personal Weather Stations
Station Observations

OlomoucCZ

Lat: 49.5936202181, Lon: 17.2276005149

Elevation: 752

Station Type: Davis Vantage Pro 2 Activ

http://infopocasi-olomouc.cz

High Low Average
Temperature 35.7°F2.1°C 31.9°F-0.1°C 33.5°F0.8°C
Dew Point 33.2°F0.7°C 27.3°F-2.6°C 30.3°F-0.9°C
Winds 11.5 mph 18.5 kmh 2.3 mph 3.7 kmh 6.0 mph NW9.7 kmh NW
Wind Gusts 19.6 mph31.5 kmh 3.5 mph5.6 kmh 8.0 mph12.9 kmh
Humidity 98% 80% 88%
Pressure 30.08 in1018.6 mb 29.75 in1007.5 mb -
Precipitation 0.01 in0.3 mm - -
Hour Temp Dew Point Humidity Winds Wind Gusts Pressure Precip Precip Rate Daily Precip Total
12:00 AM 32.8°F0.4°C 32.0°F0.0°C 97% 2.3 mph NW3.7 kmh NW 3.5 mph5.6 kmh 29.75 in1007.5 mb - 0.01 in0.3 mm 0.01 in0.3 mm
12:30 AM 32.9°F0.5°C 32.4°F0.2°C 98% 2.3 mph NW3.7 kmh NW 3.5 mph5.6 kmh 29.77 in1008.1 mb - 0.00 in0.0 mm 0.00 in0.0 mm
01:00 AM 33.0°F0.6°C 32.5°F0.3°C 98% 2.3 mph NW3.7 kmh NW 3.5 mph5.6 kmh 29.77 in1008.1 mb - 0.00 in0.0 mm 0.00 in0.0 mm
01:30 AM 33.2°F0.7°C 32.7°F0.4°C 98% 3.5 mph WNW5.6 kmh WNW 4.6 mph7.4 kmh 29.78 in1008.5 mb - 0.00 in0.0 mm 0.00 in0.0 mm
02:00 AM 33.3°F0.7°C 32.7°F0.4°C 98% 3.5 mph NW5.6 kmh NW 3.5 mph5.6 kmh 29.79 in1008.8 mb - 0.00 in0.0 mm 0.00 in0.0 mm
02:30 AM 33.1°F0.6°C 32.6°F0.3°C 98% 3.5 mph NW5.6 kmh NW 4.6 mph7.4 kmh 29.81 in1009.5 mb - 0.00 in0.0 mm 0.00 in0.0 mm
03:00 AM 33.4°F0.8°C 32.9°F0.5°C 98% 3.5 mph NNW5.6 kmh NNW 3.5 mph5.6 kmh 29.82 in1009.8 mb - 0.00 in0.0 mm 0.00 in0.0 mm
03:30 AM 33.8°F1.0°C 33.0°F0.6°C 97% 3.5 mph 5.6 kmh 3.5 mph5.6 kmh 29.82 in1009.8 mb - 0.00 in0.0 mm 0.00 in0.0 mm
04:00 AM 33.9°F1.1°C 33.1°F0.6°C 97% 2.3 mph N3.7 kmh N 3.5 mph5.6 kmh 29.83 in1010.2 mb - 0.00 in0.0 mm 0.00 in0.0 mm
04:30 AM 34.2°F1.2°C 33.2°F0.7°C 96% 3.5 mph NNW5.6 kmh NNW 5.8 mph9.3 kmh 29.83 in1010.2 mb - 0.00 in0.0 mm 0.00 in0.0 mm
05:00 AM 34.0°F1.1°C 32.7°F0.4°C 95% 5.8 mph NW9.3 kmh NW 9.2 mph14.8 kmh 29.84 in1010.5 mb - 0.00 in0.0 mm 0.01 in0.3 mm
05:30 AM 34.5°F1.4°C 32.7°F0.4°C 93% 4.6 mph N7.4 kmh N 8.1 mph13.0 kmh 29.84 in1010.5 mb - 0.00 in0.0 mm 0.01 in0.3 mm
06:00 AM 33.8°F1.0°C 32.0°F0.0°C 93% 5.8 mph NW9.3 kmh NW 8.1 mph13.0 kmh 29.86 in1011.2 mb - 0.00 in0.0 mm 0.01 in0.3 mm
06:30 AM 33.9°F1.1°C 32.1°F0.1°C 93% 5.8 mph NNW9.3 kmh NNW 5.8 mph9.3 kmh 29.87 in1011.5 mb - 0.00 in0.0 mm 0.01 in0.3 mm
07:00 AM 34.2°F1.2°C 32.2°F0.1°C 92% 4.6 mph NW7.4 kmh NW 3.5 mph5.6 kmh 29.88 in1011.9 mb - 0.00 in0.0 mm 0.01 in0.3 mm
07:30 AM 33.7°F0.9°C 31.6°F-0.2°C 92% 2.3 mph WNW3.7 kmh WNW 3.5 mph5.6 kmh 29.89 in1012.2 mb - 0.00 in0.0 mm 0.01 in0.3 mm
08:00 AM 34.1°F1.2°C 32.0°F0.0°C 92% 6.9 mph NW11.1 kmh NW 11.5 mph18.5 kmh 29.91 in1012.9 mb - 0.00 in0.0 mm 0.01 in0.3 mm
08:30 AM 34.1°F1.2°C 31.5°F-0.3°C 90% 2.3 mph WNW3.7 kmh WNW 3.5 mph5.6 kmh 29.91 in1012.9 mb - 0.00 in0.0 mm 0.01 in0.3 mm
09:00 AM 34.0°F1.1°C 31.6°F-0.2°C 91% 4.6 mph NW7.4 kmh NW 8.1 mph13.0 kmh 29.92 in1013.2 mb - 0.00 in0.0 mm 0.01 in0.3 mm
09:30 AM 33.9°F1.1°C 31.3°F-0.4°C 90% 5.8 mph NW9.3 kmh NW 10.4 mph16.7 kmh 29.93 in1013.5 mb - 0.00 in0.0 mm 0.01 in0.3 mm
10:00 AM 34.1°F1.2°C 31.2°F-0.4°C 89% 4.6 mph NW7.4 kmh NW 5.8 mph9.3 kmh 29.95 in1014.2 mb - 0.00 in0.0 mm 0.01 in0.3 mm
10:30 AM 34.3°F1.3°C 30.5°F-0.8°C 86% 5.8 mph NW9.3 kmh NW 8.1 mph13.0 kmh 29.96 in1014.6 mb - 0.00 in0.0 mm 0.01 in0.3 mm
11:00 AM 35.3°F1.8°C 31.2°F-0.4°C 85% 10.4 mph NW16.7 kmh NW 11.5 mph18.5 kmh 29.96 in1014.6 mb - 0.00 in0.0 mm 0.01 in0.3 mm
11:30 AM 35.0°F1.7°C 30.9°F-0.6°C 85% 6.9 mph NNW11.1 kmh NNW 10.4 mph16.7 kmh 29.97 in1014.9 mb - 0.00 in0.0 mm 0.01 in0.3 mm
12:00 PM 35.7°F2.1°C 31.3°F-0.4°C 84% 9.2 mph NW14.8 kmh NW 11.5 mph18.5 kmh 29.97 in1014.9 mb - 0.00 in0.0 mm 0.01 in0.3 mm
12:30 PM 34.9°F1.6°C 30.0°F-1.1°C 82% 10.4 mph NNW16.7 kmh NNW 19.6 mph31.5 kmh 29.97 in1014.9 mb - 0.00 in0.0 mm 0.01 in0.3 mm
01:00 PM 35.2°F1.8°C 30.3°F-0.9°C 82% 6.9 mph NNW11.1 kmh NNW 10.4 mph16.7 kmh 29.98 in1015.2 mb - 0.00 in0.0 mm 0.01 in0.3 mm
01:30 PM 34.8°F1.6°C 29.9°F-1.2°C 82% 6.9 mph NNW11.1 kmh NNW 11.5 mph18.5 kmh 29.98 in1015.2 mb - 0.00 in0.0 mm 0.01 in0.3 mm
02:00 PM 34.6°F1.4°C 30.0°F-1.1°C 83% 8.1 mph N13.0 kmh N 10.4 mph16.7 kmh 29.98 in1015.2 mb - 0.00 in0.0 mm 0.01 in0.3 mm
02:30 PM 34.1°F1.2°C 29.5°F-1.4°C 83% 6.9 mph NW11.1 kmh NW 9.2 mph14.8 kmh 29.99 in1015.6 mb - 0.00 in0.0 mm 0.01 in0.3 mm
03:00 PM 34.2°F1.2°C 29.3°F-1.5°C 82% 6.9 mph NNW11.1 kmh NNW 9.2 mph14.8 kmh 29.99 in1015.6 mb - 0.00 in0.0 mm 0.01 in0.3 mm
03:30 PM 33.7°F0.9°C 28.5°F-1.9°C 81% 3.5 mph N5.6 kmh N 8.1 mph13.0 kmh 30.00 in1015.9 mb - 0.00 in0.0 mm 0.01 in0.3 mm
04:00 PM 33.4°F0.8°C 28.2°F-2.1°C 81% 3.5 mph NNW5.6 kmh NNW 4.6 mph7.4 kmh 30.00 in1015.9 mb - 0.00 in0.0 mm 0.01 in0.3 mm
04:30 PM 33.3°F0.7°C 27.8°F-2.3°C 80% 10.4 mph NW16.7 kmh NW 12.7 mph20.4 kmh 30.01 in1016.3 mb - 0.00 in0.0 mm 0.01 in0.3 mm
05:00 PM 33.1°F0.6°C 27.9°F-2.3°C 81% 6.9 mph NNW11.1 kmh NNW 11.5 mph18.5 kmh 30.02 in1016.6 mb - 0.00 in0.0 mm 0.01 in0.3 mm
05:30 PM 33.0°F0.6°C 27.8°F-2.3°C 81% 4.6 mph NNW7.4 kmh NNW 9.2 mph14.8 kmh 30.03 in1016.9 mb - 0.00 in0.0 mm 0.01 in0.3 mm
06:00 PM 33.0°F0.6°C 28.1°F-2.2°C 82% 8.1 mph NW13.0 kmh NW 10.4 mph16.7 kmh 30.03 in1016.9 mb - 0.00 in0.0 mm 0.01 in0.3 mm
06:30 PM 32.9°F0.5°C 28.0°F-2.2°C 82% 6.9 mph NNW11.1 kmh NNW 10.4 mph16.7 kmh 30.04 in1017.3 mb - 0.00 in0.0 mm 0.01 in0.3 mm
07:00 PM 33.0°F0.6°C 27.8°F-2.3°C 81% 6.9 mph NW11.1 kmh NW 8.1 mph13.0 kmh 30.04 in1017.3 mb - 0.00 in0.0 mm 0.01 in0.3 mm
07:30 PM 32.5°F0.3°C 28.2°F-2.1°C 84% 5.8 mph NW9.3 kmh NW 8.1 mph13.0 kmh 30.04 in1017.3 mb - 0.00 in0.0 mm 0.01 in0.3 mm
08:00 PM 32.3°F0.2°C 28.0°F-2.2°C 84% 4.6 mph NW7.4 kmh NW 8.1 mph13.0 kmh 30.05 in1017.6 mb - 0.00 in0.0 mm 0.01 in0.3 mm
08:30 PM 32.3°F0.2°C 28.3°F-2.1°C 85% 8.1 mph NW13.0 kmh NW 11.5 mph18.5 kmh 30.06 in1017.9 mb - 0.00 in0.0 mm 0.01 in0.3 mm
09:00 PM 32.2°F0.1°C 27.9°F-2.3°C 84% 6.9 mph NW11.1 kmh NW 9.2 mph14.8 kmh 30.06 in1017.9 mb - 0.00 in0.0 mm 0.01 in0.3 mm
09:30 PM 31.9°F-0.1°C 27.6°F-2.4°C 84% 8.1 mph NW13.0 kmh NW 11.5 mph18.5 kmh 30.06 in1017.9 mb - 0.00 in0.0 mm 0.01 in0.3 mm
10:00 PM 31.9°F-0.1°C 27.6°F-2.4°C 84% 8.1 mph NW13.0 kmh NW 10.4 mph16.7 kmh 30.07 in1018.3 mb - 0.00 in0.0 mm 0.01 in0.3 mm
10:30 PM 31.9°F-0.1°C 27.6°F-2.4°C 84% 5.8 mph NW9.3 kmh NW 11.5 mph18.5 kmh 30.07 in1018.3 mb - 0.00 in0.0 mm 0.01 in0.3 mm
11:00 PM 31.9°F-0.1°C 27.6°F-2.4°C 84% 11.5 mph NW18.5 kmh NW 13.8 mph22.2 kmh 30.07 in1018.3 mb - 0.00 in0.0 mm 0.01 in0.3 mm
11:30 PM 31.9°F-0.1°C 27.3°F-2.6°C 83% 6.9 mph NW11.1 kmh NW 8.1 mph13.0 kmh 30.08 in1018.6 mb - 0.00 in0.0 mm 0.01 in0.3 mm